Terminal Aerodrome Forecast
Issued by NWS

Home | Current Version | Previous Version | Graphics & Text | Print | Product List | Glossary On
Versions: 1 2 3 4 5 6 7 8 9 10 11 12 13 14 15 16 17 18
411
FTUS43 KMPX 280520
TAFAXN
TAF
KAXN 280520Z 2806/2906 07004KT 4SM BR BKN007 OVC012
      TEMPO 2809/2812 2SM BR OVC005
     FM281500 VRB04KT P6SM OVC025
     FM281700 36006KT 6SM -SHRA BR BKN025 OVC050
     FM290000 32006KT P6SM OVC015=

USA.gov is the U.S. government's official web portal to all federal, state and local government web resources and services.